Time;durP1;ratioP1;P1;durP2;ratioP2;P2;SDS_P1;SDS_P2;PMS_P1;PMS_P2;Temp;Humidity;BMP_temperature;BMP_pressure;BME280_temperature;BME280_humidity;BME280_pressure;Samples;Min_cycle;Max_cycle;Signal;HPM_P1;HPM_P2
2023/01/19 00:01:06;;;;;;;20.17;4.68;;;;;;;14.03;46.53;63447.78;4949335;29;20233;-80
2023/01/19 00:03:35;;;;;;;15.27;3.08;;;;;;;14.06;46.56;63450.41;4947487;29;20205;-79
2023/01/19 00:06:05;;;;;;;11.90;2.97;;;;;;;14.04;46.83;63448.31;4949365;29;20232;-79
2023/01/19 00:08:33;;;;;;;23.05;5.05;;;;;;;14.07;46.77;63451.41;4949773;29;20213;-80
2023/01/19 00:11:00;;;;;;;19.25;4.30;;;;;;;14.03;46.88;63445.22;4949105;29;20557;-80
2023/01/19 00:13:27;;;;;;;20.83;3.17;;;;;;;13.96;47.09;63440.00;4947601;29;20288;-80
2023/01/19 00:15:56;;;;;;;20.65;3.97;;;;;;;14.04;47.02;63451.41;4958667;28;20240;-78
2023/01/19 00:18:23;;;;;;;20.70;3.67;;;;;;;14.02;47.08;63441.13;4947870;29;20354;-79
2023/01/19 00:20:50;;;;;;;15.43;3.67;;;;;;;13.96;47.50;63440.00;4948804;29;20209;-79
2023/01/19 00:23:17;;;;;;;24.00;3.58;;;;;;;14.02;47.29;63444.19;4949657;29;20219;-79
2023/01/19 00:25:46;;;;;;;21.25;3.88;;;;;;;13.99;47.30;63443.66;4947267;29;20531;-78
2023/01/19 00:28:14;;;;;;;13.80;3.50;;;;;;;14.00;47.25;63444.16;4944886;29;20228;-76
2023/01/19 00:30:42;;;;;;;20.27;3.03;;;;;;;14.08;46.66;63450.41;4947833;29;20565;-79
2023/01/19 00:33:12;;;;;;;16.85;3.03;;;;;;;14.12;46.64;63456.59;4950215;29;20221;-80
2023/01/19 00:35:41;;;;;;;13.52;3.95;;;;;;;14.11;46.66;63453.03;4946779;29;20268;-79
2023/01/19 00:38:08;;;;;;;22.85;4.13;;;;;;;14.20;46.35;63468.03;4945884;29;20205;-79
2023/01/19 00:40:37;;;;;;;20.42;3.10;;;;;;;14.13;46.40;63453.06;4945415;29;20205;-80
2023/01/19 00:43:04;;;;;;;14.80;3.25;;;;;;;14.11;46.22;63456.09;4947556;29;20249;-78
2023/01/19 00:45:31;;;;;;;50.38;5.20;;;;;;;14.14;46.41;63459.22;4949368;29;20209;-79
2023/01/19 00:47:58;;;;;;;22.38;3.60;;;;;;;14.06;46.56;63450.91;4947463;29;20243;-77
2023/01/19 00:50:29;;;;;;;19.10;3.60;;;;;;;14.05;46.54;63446.81;4948583;29;20243;-78
2023/01/19 00:52:59;;;;;;;22.98;3.85;;;;;;;14.04;46.30;63446.28;4946117;29;20476;-79
2023/01/19 00:55:28;;;;;;;20.35;3.40;;;;;;;14.01;46.29;63448.28;4947945;29;20239;-78
2023/01/19 00:57:55;;;;;;;15.60;2.88;;;;;;;14.07;46.20;63451.94;4948374;29;20225;-78
2023/01/19 01:00:23;;;;;;;8.38;3.00;;;;;;;14.02;46.73;63448.78;4951708;29;20276;-79
2023/01/19 01:02:51;;;;;;;23.33;3.45;;;;;;;14.03;46.35;63450.34;4945492;29;20288;-79
2023/01/19 01:05:19;;;;;;;19.05;4.40;;;;;;;14.05;46.25;63449.38;4948282;29;20264;-79
2023/01/19 01:07:48;;;;;;;15.95;4.03;;;;;;;14.07;45.78;63446.81;4948304;29;20232;-80
2023/01/19 01:10:18;;;;;;;19.23;2.83;;;;;;;14.13;45.70;63457.66;4947185;29;20556;-78
2023/01/19 01:12:46;;;;;;;11.07;3.20;;;;;;;14.10;45.86;63455.06;4948466;29;20247;-76
2023/01/19 01:15:15;;;;;;;7.80;3.15;;;;;;;14.07;45.69;63449.38;4955347;29;20232;-78
2023/01/19 01:17:46;;;;;;;23.83;3.83;;;;;;;14.13;45.47;63460.22;4954847;28;20244;-79
2023/01/19 01:20:17;;;;;;;11.80;2.95;;;;;;;14.07;45.51;63453.97;4944637;29;20237;-77
2023/01/19 01:22:47;;;;;;;14.88;3.22;;;;;;;14.11;45.71;63453.03;4947076;29;20628;-79
2023/01/19 01:25:17;;;;;;;19.48;3.47;;;;;;;14.13;45.01;63453.06;4947199;29;20216;-77
2023/01/19 01:27:45;;;;;;;11.35;3.15;;;;;;;14.15;45.67;63457.69;4949357;29;20221;-79
2023/01/19 01:30:14;;;;;;;16.98;3.10;;;;;;;14.14;45.49;63458.69;4946091;29;20220;-79
2023/01/19 01:32:42;;;;;;;18.50;3.45;;;;;;;14.07;45.52;63451.41;4947853;29;20225;-77
2023/01/19 01:35:12;;;;;;;16.70;3.17;;;;;;;14.07;45.11;63448.88;4947635;29;20237;-78
2023/01/19 01:37:41;;;;;;;18.58;3.53;;;;;;;14.01;45.74;63443.16;4947078;29;20287;-78
2023/01/19 01:40:15;;;;;;;20.35;3.85;;;;;;;14.10;45.42;63457.13;4952304;29;20209;-78
2023/01/19 01:42:44;;;;;;;18.17;3.60;;;;;;;14.14;44.94;63456.13;4953412;29;20262;-78
2023/01/19 01:45:29;;;;;;;30.10;3.53;;;;;;;14.07;45.22;63448.88;4951242;29;20256;-78
2023/01/19 01:48:00;;;;;;;14.18;3.00;;;;;;;14.03;45.27;63450.34;4946332;29;20233;-78
2023/01/19 01:50:32;;;;;;;16.83;2.97;;;;;;;14.05;44.97;63449.88;4950267;29;20258;-77
2023/01/19 01:53:03;;;;;;;22.33;2.72;;;;;;;14.15;44.75;63460.25;4951784;29;20217;-80
2023/01/19 01:55:33;;;;;;;15.45;3.50;;;;;;;14.11;45.18;63455.59;4950866;29;20256;-79
2023/01/19 01:58:05;;;;;;;19.75;2.60;;;;;;;14.11;44.95;63453.03;4947510;29;20209;-77
2023/01/19 02:02:49;;;;;;;11.25;2.80;;;;;;;14.11;44.92;63453.53;4951526;29;20194;-78
2023/01/19 02:03:19;;;;;;;8.20;3.15;;;;;;;14.07;44.70;63451.41;4948765;29;20204;-80
2023/01/19 02:05:46;;;;;;;20.65;3.08;;;;;;;14.06;44.98;63455.50;4948485;29;20393;-79
2023/01/19 02:13:50;;;;;;;11.02;2.03;;;;;;;13.99;44.86;63440.56;4933328;29;20284;-78
2023/01/19 02:16:18;;;;;;;15.05;2.67;;;;;;;14.00;44.97;63441.59;4961515;28;20442;-79
2023/01/19 02:18:45;;;;;;;13.80;2.40;;;;;;;14.06;44.47;63450.91;4951232;29;20238;-78
2023/01/19 02:21:17;;;;;;;15.20;2.92;;;;;;;14.07;44.27;63449.38;4950120;29;20225;-78
2023/01/19 02:23:48;;;;;;;6.20;2.05;;;;;;;14.08;44.38;63452.47;4940336;29;20221;-77
2023/01/19 02:26:19;;;;;;;11.30;2.78;;;;;;;14.12;44.26;63457.13;4950673;29;20229;-78
2023/01/19 02:28:50;;;;;;;15.73;2.75;;;;;;;14.02;44.42;63441.63;4949575;29;20205;-76
2023/01/19 02:31:18;;;;;;;16.48;3.35;;;;;;;14.06;44.30;63450.41;4948141;29;20249;-77
2023/01/19 02:33:46;;;;;;;15.15;3.03;;;;;;;14.07;44.00;63446.81;4949318;29;20268;-79
2023/01/19 02:36:16;;;;;;;23.23;2.45;;;;;;;14.14;44.15;63456.13;4948059;29;20553;-77
2023/01/19 02:38:47;;;;;;;17.13;2.08;;;;;;;14.10;44.18;63452.50;4934569;29;20209;-78
2023/01/19 02:41:18;;;;;;;12.60;2.90;;;;;;;14.11;44.32;63456.09;4947258;29;20580;-80
2023/01/19 02:43:47;;;;;;;19.48;3.47;;;;;;;14.06;44.22;63450.91;4951320;29;20510;-80
2023/01/19 02:46:14;;;;;;;11.75;2.40;;;;;;;14.08;44.32;63455.53;4949867;29;20782;-79
2023/01/19 02:48:42;;;;;;;14.75;2.58;;;;;;;14.05;44.34;63447.31;4943431;29;20266;-78
2023/01/19 02:51:15;;;;;;;12.13;2.30;;;;;;;14.07;44.19;63451.41;4944089;29;20229;-79
2023/01/19 02:54:11;;;;;;;17.92;2.05;;;;;;;14.07;44.19;63449.38;4950276;29;20232;-78
2023/01/19 02:57:02;;;;;;;12.98;2.60;;;;;;;13.97;44.42;63441.03;4946169;29;20237;-79
2023/01/19 02:59:43;;;;;;;12.77;2.28;;;;;;;14.00;44.27;63447.25;4937827;29;20433;-77
2023/01/19 03:02:21;;;;;;;16.58;2.55;;;;;;;13.97;44.36;63433.88;4950073;29;20286;-77
2023/01/19 03:04:59;;;;;;;20.80;3.97;;;;;;;13.95;44.23;63439.50;4949376;29;20197;-79
2023/01/19 03:07:34;;;;;;;11.20;1.55;;;;;;;13.88;44.20;63430.19;4950589;29;20230;-79
2023/01/19 03:10:07;;;;;;;14.25;3.15;;;;;;;13.91;44.02;63435.84;4949027;29;20267;-79
2023/01/19 03:12:42;;;;;;;11.02;2.63;;;;;;;13.89;44.21;63433.78;4949762;29;20528;-78
2023/01/19 03:15:18;;;;;;;6.53;2.28;;;;;;;13.82;43.99;63423.44;4951142;29;20200;-79
2023/01/19 03:17:48;;;;;;;17.02;2.70;;;;;;;13.87;43.93;63429.13;4938700;29;20229;-78
2023/01/19 03:20:18;;;;;;;18.90;3.88;;;;;;;13.99;43.46;63446.22;4948579;29;20201;-78
2023/01/19 03:22:49;;;;;;;12.73;2.00;;;;;;;13.89;43.88;63430.72;4950025;29;20424;-76
2023/01/19 03:25:19;;;;;;;13.77;2.20;;;;;;;13.92;43.92;63438.94;4947012;29;20201;-79
2023/01/19 03:27:50;;;;;;;12.35;2.38;;;;;;;13.90;44.50;63434.31;4947830;29;20515;-78
2023/01/19 03:30:22;;;;;;;13.20;2.67;;;;;;;13.93;44.33;63434.84;4946036;29;20216;-78
2023/01/19 03:32:54;;;;;;;12.27;2.67;;;;;;;13.85;44.42;63427.06;4948134;29;20281;-80
2023/01/19 03:35:26;;;;;;;16.17;2.75;;;;;;;13.90;44.22;63434.31;4947369;29;20224;-79
2023/01/19 03:37:56;;;;;;;8.40;2.47;;;;;;;13.80;43.79;63419.31;4950001;29;20276;-79
2023/01/19 03:40:27;;;;;;;10.65;2.67;;;;;;;13.68;44.13;63416.59;4947660;29;20217;-79
2023/01/19 03:42:55;;;;;;;12.25;3.70;;;;;;;13.82;44.21;63429.06;4948254;29;20225;-78
2023/01/19 03:45:23;;;;;;;16.95;2.50;;;;;;;13.86;44.01;63430.66;4945537;29;20213;-78
2023/01/19 03:47:51;;;;;;;26.33;3.60;;;;;;;13.84;43.34;63423.47;4953518;29;20223;-76
2023/01/19 03:50:25;;;;;;;19.85;2.88;;;;;;;13.93;43.25;63437.94;4947626;29;20209;-78
2023/01/19 03:53:06;;;;;;;20.48;2.80;;;;;;;13.88;43.23;63432.22;4949771;29;20367;-77
2023/01/19 03:55:35;;;;;;;14.15;2.67;;;;;;;13.82;43.65;63426.00;4948949;29;20293;-78
2023/01/19 03:58:01;;;;;;;18.17;3.65;;;;;;;13.80;43.60;63421.38;4957492;29;20278;-78
2023/01/19 04:00:29;;;;;;;22.30;4.38;;;;;;;13.82;43.35;63423.44;4936671;29;20212;-79
2023/01/19 04:02:56;;;;;;;20.85;4.45;;;;;;;13.81;43.52;63422.41;4941268;29;20221;-79
2023/01/19 04:05:23;;;;;;;20.17;3.58;;;;;;;13.80;43.28;63424.44;4950578;29;20370;-77
2023/01/19 04:07:51;;;;;;;21.85;2.95;;;;;;;13.78;43.14;63421.84;4949015;29;20231;-78
2023/01/19 04:10:18;;;;;;;34.75;4.95;;;;;;;13.79;43.11;63418.28;4949801;29;20210;-79
2023/01/19 04:12:48;;;;;;;19.17;4.70;;;;;;;13.87;42.99;63436.31;4947346;29;20259;-78
2023/01/19 04:15:15;;;;;;;24.85;4.40;;;;;;;13.77;43.17;63421.31;4956993;29;20232;-80
2023/01/19 04:17:42;;;;;;;18.05;3.42;;;;;;;13.74;43.09;63412.56;4951748;29;20233;-79
2023/01/19 04:20:11;;;;;;;23.73;4.53;;;;;;;13.76;42.78;63422.84;4947658;29;20272;-79
2023/01/19 04:22:38;;;;;;;26.08;4.97;;;;;;;13.84;42.63;63426.03;4947735;29;20288;-75
2023/01/19 04:25:07;;;;;;;17.88;4.15;;;;;;;13.89;42.05;63428.16;4939015;29;20209;-78
2023/01/19 04:27:34;;;;;;;36.22;5.15;;;;;;;13.92;42.16;63433.81;4939928;29;20238;-77
2023/01/19 04:30:03;;;;;;;30.27;4.95;;;;;;;13.91;42.04;63432.78;4949021;29;20209;-76
2023/01/19 04:32:31;;;;;;;37.25;5.63;;;;;;;13.96;41.98;63434.91;4949170;29;20296;-79
2023/01/19 04:34:59;;;;;;;24.58;4.20;;;;;;;13.93;42.26;63436.91;4947776;29;20205;-80
2023/01/19 04:37:26;;;;;;;25.05;4.40;;;;;;;13.92;42.13;63433.81;4950049;29;20549;-79
2023/01/19 04:39:53;;;;;;;20.98;4.32;;;;;;;13.90;41.93;63432.25;4950921;29;20518;-80
2023/01/19 04:42:21;;;;;;;21.15;5.38;;;;;;;13.96;42.26;63437.47;4949086;29;20479;-79
2023/01/19 04:44:48;;;;;;;27.13;4.70;;;;;;;13.87;42.13;63434.25;4950151;29;20201;-79
2023/01/19 04:47:18;;;;;;;28.77;5.35;;;;;;;13.83;42.12;63421.91;4950483;29;20576;-79
2023/01/19 04:49:45;;;;;;;26.73;4.97;;;;;;;13.92;41.89;63438.94;4951308;29;20218;-78
2023/01/19 04:52:13;;;;;;;21.40;4.45;;;;;;;13.91;42.03;63430.22;4948463;29;20225;-79
2023/01/19 04:54:40;;;;;;;27.55;4.40;;;;;;;13.87;41.77;63431.69;4952279;29;20260;-80
2023/01/19 04:57:07;;;;;;;19.00;3.80;;;;;;;13.84;41.59;63428.59;4950786;29;20306;-79
2023/01/19 04:59:34;;;;;;;26.02;4.25;;;;;;;13.82;41.79;63429.06;4937936;29;20237;-79
2023/01/19 05:02:01;;;;;;;30.63;5.03;;;;;;;13.79;41.89;63422.88;4944547;29;20229;-80
2023/01/19 05:04:29;;;;;;;40.53;5.78;;;;;;;13.74;41.86;63415.13;4943417;29;20211;-80
2023/01/19 05:06:57;;;;;;;23.52;3.78;;;;;;;13.79;41.51;63423.41;4945193;29;20253;-79
2023/01/19 05:09:24;;;;;;;29.63;6.03;;;;;;;13.82;41.47;63423.94;4940481;29;20205;-78
2023/01/19 05:11:51;;;;;;;27.52;5.45;;;;;;;13.84;41.91;63426.03;4946485;29;20225;-78
2023/01/19 05:14:19;;;;;;;21.48;5.00;;;;;;;13.82;41.80;63426.00;4948701;29;20220;-80
2023/01/19 05:16:49;;;;;;;32.72;4.80;;;;;;;13.81;41.56;63427.50;4939931;29;20269;-79
2023/01/19 05:19:16;;;;;;;36.85;5.88;;;;;;;13.93;41.19;63439.47;4946040;29;20205;-80
2023/01/19 05:21:44;;;;;;;29.20;4.68;;;;;;;13.97;41.37;63441.03;4950507;29;20341;-79
2023/01/19 05:24:12;;;;;;;22.80;3.75;;;;;;;13.88;41.43;63429.66;4948455;29;20209;-79
2023/01/19 05:26:39;;;;;;;35.47;4.47;;;;;;;13.93;41.04;63435.38;4947372;29;20231;-78
2023/01/19 05:29:07;;;;;;;26.98;4.25;;;;;;;14.04;40.90;63448.31;4948559;29;20213;-78
2023/01/19 05:31:34;;;;;;;15.82;4.03;;;;;;;13.95;41.12;63439.50;4943886;29;20255;-79
2023/01/19 05:34:01;;;;;;;25.65;4.00;;;;;;;13.96;40.70;63440.53;4948392;29;20205;-79
2023/01/19 05:36:28;;;;;;;24.80;5.40;;;;;;;14.00;40.76;63444.16;4946513;29;20236;-79
2023/01/19 05:38:57;;;;;;;34.97;4.38;;;;;;;14.08;40.13;63449.91;4947478;29;20201;-78
2023/01/19 05:41:24;;;;;;;22.08;4.32;;;;;;;14.16;39.81;63461.28;4948697;29;20229;-77
2023/01/19 05:43:50;;;;;;;13.27;3.92;;;;;;;14.26;39.65;63469.13;4949690;29;20217;-78
2023/01/19 05:46:17;;;;;;;16.13;3.45;;;;;;;14.20;39.90;63462.91;4945735;29;20276;-77
2023/01/19 05:48:45;;;;;;;28.52;4.25;;;;;;;14.21;40.13;63463.41;4949853;29;20205;-78
2023/01/19 05:51:12;;;;;;;19.75;4.68;;;;;;;14.12;40.27;63454.06;4949120;29;20231;-79
2023/01/19 05:53:39;;;;;;;26.25;4.90;;;;;;;14.23;39.64;63473.16;4948581;29;20311;-79
2023/01/19 05:56:08;;;;;;;32.70;4.82;;;;;;;14.15;40.07;63460.25;4946949;29;20236;-80
2023/01/19 05:58:38;;;;;;;35.22;5.40;;;;;;;14.11;40.44;63456.09;4949558;29;20253;-79
2023/01/19 06:01:07;;;;;;;36.20;4.47;;;;;;;14.13;40.16;63457.66;4944932;29;20225;-79
2023/01/19 06:03:36;;;;;;;22.58;4.93;;;;;;;14.17;39.70;63464.88;4946282;29;20302;-79
2023/01/19 06:06:04;;;;;;;27.30;5.32;;;;;;;14.17;40.01;63462.31;4948425;29;20229;-78
2023/01/19 06:08:31;;;;;;;25.58;4.53;;;;;;;14.15;39.89;63457.69;4938145;29;20213;-80
2023/01/19 06:10:58;;;;;;;27.45;5.57;;;;;;;14.13;39.99;63457.66;4948867;29;20229;-77
2023/01/19 06:13:26;;;;;;;33.40;5.18;;;;;;;14.18;39.93;63462.84;4946130;29;20244;-79
2023/01/19 06:15:57;;;;;;;31.08;4.85;;;;;;;14.11;40.20;63458.66;4959503;28;20412;-78
2023/01/19 06:18:24;;;;;;;32.67;6.72;;;;;;;14.16;39.80;63461.28;4970568;29;20213;-80
2023/01/19 06:20:57;;;;;;;24.48;5.20;;;;;;;14.10;39.67;63452.00;4968493;28;20221;-80
2023/01/19 06:23:24;;;;;;;36.90;7.13;;;;;;;14.16;39.55;63458.75;4945520;29;20205;-79
2023/01/19 06:25:51;;;;;;;30.10;4.38;;;;;;;14.26;39.30;63469.13;4952486;29;20281;-80
2023/01/19 06:28:19;;;;;;;28.52;5.25;;;;;;;14.22;39.54;63467.50;4952363;29;20261;-80
2023/01/19 06:30:49;;;;;;;22.33;4.93;;;;;;;14.27;39.34;63472.72;4952391;29;20236;-79
2023/01/19 06:33:17;;;;;;;25.50;5.03;;;;;;;14.26;39.37;63471.16;4953472;29;20204;-80
2023/01/19 06:35:44;;;;;;;23.38;5.55;;;;;;;14.16;39.62;63461.28;4953791;29;20209;-79
2023/01/19 06:38:12;;;;;;;22.90;6.07;;;;;;;14.22;39.25;63469.56;4952265;29;20240;-78
2023/01/19 06:40:40;;;;;;;26.55;5.07;;;;;;;14.28;39.40;63473.78;4949193;29;20209;-79
2023/01/19 06:43:07;;;;;;;25.15;5.20;;;;;;;14.35;38.76;63481.03;4953637;29;20204;-81
2023/01/19 06:45:34;;;;;;;26.38;5.18;;;;;;;14.49;38.69;63493.03;4952875;29;20459;-79
2023/01/19 06:48:03;;;;;;;32.75;5.90;;;;;;;14.47;39.08;63492.97;4951371;29;20210;-79
2023/01/19 06:50:30;;;;;;;26.67;5.85;;;;;;;14.55;38.89;63501.28;4950284;29;20220;-80
2023/01/19 06:52:57;;;;;;;25.50;5.43;;;;;;;14.57;38.62;63501.31;4947916;29;20234;-80
2023/01/19 06:55:25;;;;;;;34.20;5.47;;;;;;;14.54;38.51;63495.13;4951650;29;20197;-79
2023/01/19 06:57:57;;;;;;;29.88;4.43;;;;;;;14.71;38.10;63515.88;4953759;29;20236;-80
2023/01/19 07:00:24;;;;;;;32.17;5.68;;;;;;;14.76;37.82;63520.53;4951440;29;20216;-79
2023/01/19 07:02:52;;;;;;;26.63;5.45;;;;;;;14.83;37.49;63530.38;4952016;29;20538;-79
2023/01/19 07:05:20;;;;;;;33.00;5.82;;;;;;;14.93;37.50;63538.19;4951904;29;20201;-79
2023/01/19 07:07:51;;;;;;;23.70;4.90;;;;;;;15.08;37.08;63556.88;4942463;29;20331;-76
2023/01/19 07:10:19;;;;;;;17.95;5.43;;;;;;;15.25;36.57;63571.47;4932027;29;20513;-79
2023/01/19 07:12:47;;;;;;;24.25;5.00;;;;;;;15.31;36.49;63585.38;4933353;29;20253;-81
2023/01/19 07:15:14;;;;;;;28.75;6.22;;;;;;;15.24;36.31;63569.91;4938500;29;20228;-78
2023/01/19 07:17:42;;;;;;;28.60;5.30;;;;;;;15.31;35.98;63582.28;4951311;29;20263;-78
2023/01/19 07:20:11;;;;;;;28.45;6.13;;;;;;;15.40;36.37;63586.53;4950725;29;20204;-79
2023/01/19 07:22:42;;;;;;;20.75;4.90;;;;;;;15.46;35.74;63595.84;4952510;29;20232;-79
2023/01/19 07:25:09;;;;;;;33.58;5.30;;;;;;;15.63;35.69;63613.03;4950162;29;20529;-79
2023/01/19 07:27:36;;;;;;;25.17;4.97;;;;;;;15.70;35.62;63617.72;4953943;29;20276;-78
2023/01/19 07:30:04;;;;;;;27.10;5.68;;;;;;;15.80;35.49;63628.13;4951146;29;20263;-79
2023/01/19 07:32:31;;;;;;;27.17;5.25;;;;;;;15.85;35.22;63635.88;4952575;29;20233;-80
2023/01/19 07:34:58;;;;;;;31.52;6.00;;;;;;;15.91;35.32;63639.56;4932477;29;20236;-78
2023/01/19 07:37:25;;;;;;;17.70;4.10;;;;;;;15.88;35.54;63639.00;4934279;29;20245;-79
2023/01/19 07:39:54;;;;;;;25.13;5.72;;;;;;;15.78;35.22;63626.56;4942614;29;20285;-80
2023/01/19 07:42:29;;;;;;;26.90;5.38;;;;;;;15.81;34.92;63627.13;4952964;29;20248;-77
2023/01/19 07:44:57;;;;;;;26.20;5.63;;;;;;;15.80;35.30;63625.56;4952730;29;20204;-79
2023/01/19 07:47:25;;;;;;;32.10;5.75;;;;;;;15.78;34.90;63626.56;4952188;29;20225;-80
2023/01/19 07:49:52;;;;;;;27.27;5.05;;;;;;;15.85;35.39;63633.84;4953565;29;20294;-79
2023/01/19 07:52:20;;;;;;;25.60;4.93;;;;;;;15.87;35.17;63638.50;4952385;29;20232;-82
2023/01/19 07:54:54;;;;;;;28.27;5.15;;;;;;;15.91;35.22;63642.13;4949758;29;20201;-79
2023/01/19 07:57:23;;;;;;;34.97;5.07;;;;;;;15.89;34.82;63642.63;4953284;29;20246;-80
2023/01/19 07:59:50;;;;;;;25.67;5.20;;;;;;;15.89;34.62;63637.50;4952328;29;20204;-78
2023/01/19 08:02:17;;;;;;;22.85;4.85;;;;;;;15.93;34.65;63649.34;4952706;29;20228;-80
2023/01/19 08:04:47;;;;;;;38.70;6.35;;;;;;;15.97;34.86;63648.91;4951388;29;20252;-77
2023/01/19 08:07:15;;;;;;;29.38;5.43;;;;;;;16.01;34.58;63655.09;4951997;29;20248;-79
2023/01/19 08:09:47;;;;;;;35.10;5.70;;;;;;;15.97;34.14;63650.94;4952020;29;20208;-79
2023/01/19 08:12:17;;;;;;;26.10;5.15;;;;;;;15.99;34.33;63650.44;4951553;29;20224;-81
2023/01/19 08:14:46;;;;;;;18.92;5.40;;;;;;;16.09;34.35;63658.28;4955761;29;20205;-79
2023/01/19 08:17:13;;;;;;;42.58;7.15;;;;;;;16.10;34.88;63664.47;4951645;29;20240;-80
2023/01/19 08:19:41;;;;;;;40.92;5.82;;;;;;;16.00;34.89;63652.00;4951392;29;20208;-79
2023/01/19 08:22:08;;;;;;;24.70;5.22;;;;;;;16.14;34.21;63666.56;4950525;29;20447;-80
2023/01/19 08:24:35;;;;;;;37.17;6.50;;;;;;;16.26;34.58;63681.09;4953849;29;20201;-78
2023/01/19 08:27:02;;;;;;;37.75;6.60;;;;;;;16.19;34.07;63666.63;4948427;29;20452;-79
2023/01/19 08:29:33;;;;;;;30.25;6.95;;;;;;;16.20;34.37;63672.81;4932957;29;20221;-81
2023/01/19 08:32:01;;;;;;;34.72;5.15;;;;;;;16.27;34.08;63679.59;4933607;29;20229;-80
2023/01/19 08:34:29;;;;;;;36.15;5.88;;;;;;;16.39;33.90;63686.41;4932962;29;20190;-78
2023/01/19 08:36:57;;;;;;;30.70;5.68;;;;;;;16.33;34.82;63685.28;4935698;29;20247;-81
2023/01/19 08:39:23;;;;;;;28.33;5.60;;;;;;;16.32;34.43;63681.69;4941751;29;20265;-78
2023/01/19 08:41:52;;;;;;;24.38;5.30;;;;;;;16.33;34.25;63683.25;4938623;29;20232;-79
2023/01/19 08:44:19;;;;;;;33.70;6.18;;;;;;;16.45;34.27;63695.72;4935769;29;20228;-79
2023/01/19 08:46:49;;;;;;;35.80;6.32;;;;;;;16.48;34.23;63701.44;4941996;29;20235;-80
2023/01/19 08:49:16;;;;;;;26.48;4.38;;;;;;;16.41;34.35;63693.63;4953628;29;20216;-78
2023/01/19 08:51:45;;;;;;;22.25;5.95;;;;;;;16.45;34.35;63698.28;4948982;29;20228;-79
2023/01/19 08:54:13;;;;;;;27.25;6.05;;;;;;;16.64;34.00;63720.13;4951512;29;20204;-79
2023/01/19 08:56:39;;;;;;;23.77;5.63;;;;;;;16.53;33.86;63703.56;4949917;29;20224;-78
2023/01/19 08:59:06;;;;;;;28.33;4.55;;;;;;;16.62;34.04;63715.50;4950937;29;20553;-80
2023/01/19 09:01:33;;;;;;;29.30;4.95;;;;;;;16.70;34.42;63721.75;4949930;29;20258;-78
2023/01/19 09:04:02;;;;;;;23.05;4.72;;;;;;;16.82;34.05;63736.28;4952136;29;20240;-79
2023/01/19 09:06:29;;;;;;;17.33;4.60;;;;;;;16.82;33.88;63736.81;4949819;29;20288;-77
2023/01/19 09:08:56;;;;;;;22.85;4.43;;;;;;;16.86;34.23;63743.03;4949060;29;20244;-79
2023/01/19 09:11:23;;;;;;;26.83;5.60;;;;;;;16.96;33.84;63748.28;4949747;29;20542;-80
2023/01/19 09:13:54;;;;;;;24.83;4.90;;;;;;;16.97;33.99;63754.47;4952313;29;20208;-79
2023/01/19 09:16:20;;;;;;;20.58;4.13;;;;;;;16.88;33.52;63740.47;4953904;29;20273;-79
2023/01/19 09:18:48;;;;;;;19.20;4.05;;;;;;;16.91;33.67;63745.66;4954654;29;20258;-82
2023/01/19 09:21:17;;;;;;;25.52;4.65;;;;;;;16.82;33.53;63734.25;4951485;29;20323;-80
2023/01/19 09:23:55;;;;;;;18.35;4.07;;;;;;;16.91;34.05;63743.59;4947642;29;20400;-80
2023/01/19 09:26:23;;;;;;;13.18;3.78;;;;;;;16.88;34.26;63740.47;4953279;29;20255;-81
2023/01/19 09:28:50;;;;;;;23.63;4.32;;;;;;;16.94;33.94;63748.78;4953164;29;20528;-82
2023/01/19 09:31:16;;;;;;;19.20;3.85;;;;;;;16.82;34.14;63741.44;4950567;29;20273;-78
2023/01/19 09:33:44;;;;;;;10.55;3.58;;;;;;;16.81;34.21;63733.19;4948172;29;20240;-77
2023/01/19 09:36:11;;;;;;;21.92;3.95;;;;;;;16.73;34.33;63729.50;4949637;29;20248;-77
2023/01/19 09:38:40;;;;;;;15.07;2.90;;;;;;;16.62;34.60;63710.34;4949931;29;20241;-78
2023/01/19 09:41:18;;;;;;;13.55;3.45;;;;;;;16.36;35.21;63685.84;4939849;29;20233;-77
2023/01/19 09:43:50;;;;;;;12.80;3.92;;;;;;;16.44;35.12;63696.72;4930781;29;20194;-80
2023/01/19 09:46:21;;;;;;;20.27;4.65;;;;;;;16.50;35.28;63703.00;4933323;29;20229;-75
2023/01/19 09:48:52;;;;;;;26.85;4.20;;;;;;;16.64;34.47;63715.50;4929866;29;20390;-79
2023/01/19 09:51:21;;;;;;;18.67;3.60;;;;;;;16.61;34.54;63714.44;4930037;29;20277;-78
2023/01/19 09:53:57;;;;;;;20.42;3.83;;;;;;;16.63;34.40;63719.09;4930428;29;20209;-79
2023/01/19 09:56:25;;;;;;;15.45;3.45;;;;;;;16.60;34.34;63713.91;4930749;29;20221;-77
2023/01/19 09:58:52;;;;;;;18.80;3.83;;;;;;;16.53;34.43;63703.56;4931417;29;20265;-79
2023/01/19 10:01:37;;;;;;;20.55;3.05;;;;;;;16.43;34.43;63693.13;4935663;29;20360;-79
2023/01/19 10:04:41;;;;;;;15.07;4.05;;;;;;;16.38;35.13;63688.44;4954069;29;20363;-81
2023/01/19 10:07:25;;;;;;;19.90;3.38;;;;;;;16.40;35.16;63692.56;4883705;29;20287;-78
2023/01/19 10:10:15;;;;;;;17.70;3.80;;;;;;;16.44;34.92;63694.16;4898970;29;20199;-78
2023/01/19 10:13:05;;;;;;;11.45;2.83;;;;;;;16.42;35.00;63699.78;4926013;29;20256;-79
2023/01/19 10:15:42;;;;;;;21.27;4.13;;;;;;;16.31;35.53;63683.72;4927194;29;20219;-77
2023/01/19 10:18:18;;;;;;;15.60;4.10;;;;;;;16.21;36.24;63675.91;4953557;29;20269;-79
2023/01/19 10:20:49;;;;;;;15.98;2.55;;;;;;;16.20;36.17;63674.88;4941925;29;21712;-76
2023/01/19 10:23:36;;;;;;;14.68;2.42;;;;;;;16.13;36.25;63668.09;4937760;29;20194;-82
2023/01/19 10:26:09;;;;;;;12.70;3.05;;;;;;;16.15;36.09;63662.47;4935073;29;20225;-78
2023/01/19 10:28:41;;;;;;;16.17;3.22;;;;;;;16.00;35.65;63649.44;4939213;29;20268;-76
2023/01/19 10:31:08;;;;;;;13.20;2.88;;;;;;;15.93;35.48;63644.19;4953417;29;20231;-76
2023/01/19 10:33:39;;;;;;;7.85;2.35;;;;;;;15.84;36.16;63632.28;4954082;29;20227;-78
2023/01/19 10:36:16;;;;;;;16.02;2.65;;;;;;;15.79;36.47;63625.03;4956605;29;20229;-77
2023/01/19 10:38:44;;;;;;;13.05;2.88;;;;;;;15.74;36.57;63621.88;4949846;29;20240;-80
2023/01/19 10:41:27;;;;;;;9.00;2.55;;;;;;;15.72;36.81;63620.31;4953702;29;20589;-81
2023/01/19 10:44:04;;;;;;;11.00;3.13;;;;;;;15.76;35.84;63627.06;4954647;29;20205;-79
2023/01/19 10:46:40;;;;;;;13.00;2.80;;;;;;;15.65;36.17;63615.59;4943394;29;20253;-78
2023/01/19 10:49:26;;;;;;;10.85;2.88;;;;;;;15.73;35.89;63621.38;4934057;29;20212;-78
2023/01/19 10:51:54;;;;;;;12.55;3.47;;;;;;;15.82;36.23;63630.75;4933086;29;20229;-79
2023/01/19 10:54:22;;;;;;;12.07;3.33;;;;;;;15.83;36.37;63634.34;4933010;29;20530;-80
2023/01/19 10:56:54;;;;;;;21.95;3.67;;;;;;;16.06;36.14;63657.72;4948813;29;20236;-78
2023/01/19 10:59:34;;;;;;;15.07;2.60;;;;;;;15.97;36.39;63643.22;4952098;29;20236;-79
2023/01/19 11:02:19;;;;;;;16.38;3.97;;;;;;;15.91;37.48;63642.66;4952297;29;20220;-79
2023/01/19 11:04:51;;;;;;;17.25;2.88;;;;;;;15.83;37.31;63631.25;4952133;29;20215;-79
2023/01/19 11:07:23;;;;;;;10.57;3.08;;;;;;;15.92;37.15;63640.59;4949213;29;20292;-79
2023/01/19 11:10:10;;;;;;;6.80;3.00;;;;;;;15.95;36.86;63651.94;4951378;29;20245;-78
2023/01/19 11:12:42;;;;;;;8.95;3.13;;;;;;;15.88;37.34;63642.09;4955706;29;20225;-80
2023/01/19 11:15:26;;;;;;;9.18;2.53;;;;;;;15.99;36.59;63650.97;4947822;29;20203;-81
2023/01/19 11:17:57;;;;;;;12.85;2.38;;;;;;;16.00;36.50;63654.06;4964859;28;20233;-78
2023/01/19 11:20:29;;;;;;;18.20;2.40;;;;;;;15.96;36.53;63652.47;4950246;29;20357;-76
2023/01/19 11:23:07;;;;;;;8.90;2.80;;;;;;;15.84;36.48;63635.38;4952078;29;20220;-79
2023/01/19 11:25:36;;;;;;;6.53;2.35;;;;;;;16.01;36.47;63650.47;4953395;29;20193;-80
2023/01/19 11:28:05;;;;;;;11.85;2.38;;;;;;;16.07;35.93;63661.88;4951102;29;20213;-79
2023/01/19 11:30:32;;;;;;;9.13;2.70;;;;;;;16.04;35.84;63658.22;4951829;29;20221;-77
2023/01/19 11:32:59;;;;;;;10.02;2.15;;;;;;;16.03;36.20;63652.06;4953297;29;20231;-78
2023/01/19 11:35:35;;;;;;;12.15;2.25;;;;;;;16.24;35.80;63678.50;4953221;29;20201;-78
2023/01/19 11:38:16;;;;;;;18.83;3.65;;;;;;;16.35;35.57;63685.31;4949883;29;20294;-76
2023/01/19 11:40:50;;;;;;;9.88;2.80;;;;;;;16.29;35.59;63681.66;4951223;29;20220;-79
2023/01/19 11:43:20;;;;;;;13.00;2.80;;;;;;;16.13;35.62;63662.94;4952055;29;20204;-76
2023/01/19 11:45:47;;;;;;;13.90;2.10;;;;;;;16.15;35.13;63664.53;4949870;29;20276;-76